Portada
METAR-TAF:

METAR-TAF

Aeropuertos :

Aeropuerto de Ängelholm-Helsingborg

Helsingborg, Suecia

latitud: 56-17-46N, longitud: 012-50-50E, altitud: 21 m

Observación

El informe se hizo hace 26 minutos, a las 18:20 UTC
Viento 4 kt del sureste
Temperatura 4°C
Humedad 93%
Presión 1013 hPa
Visibilidad: 4100 m
neblina

METAR: ESTA 181820Z 14004KT 4100 BR NSC 04/03 Q1013

Hora: 19:46 (18:46 UTC)

Pronóstico

El informe se hizo hace 1 hora y 45 minutos, a las 17:01 UTC
Pronóstico válido del 18 a las 18 UTC al 18 a las 23 UTC
Viento 5 kt del sur-sureste
Visibilidad: 6000 m
Nubes dispersas a una altura de 500 ft
Temporalmente
del 18 a las 18 UTC al 18 a las 21 UTC
Visibilidad: 3000 m
neblina
Probabilidad 40%
del 18 a las 21 UTC al 18 a las 23 UTC
Visibilidad: 1200 m
neblina

TAF: ESTA 181701Z 1818/1823 15005KT 6000 SCT005 TEMPO 1818/1821 3000 BR PROB40 1821/1823 1200 BR

Observaciones y pronósticos meteorológicos de más de 4000 aeropuertos (mensajes METAR y TAF).

Los puntos amarillos y rojos representan las estaciones disponibles.

Ponga el ratón en el punto deseado para ver el nombre de la estación.

Haga clic para ver las observaciones y los pronósticos meteorológicos.

Para cambiar el mapa : haga clic en los botones verdes con una cruz de color negro para hacer un zoom, en el botón verde con un guión para alejar o en las flechas verdes para mapas adyacentes.


METAR-TAF: